CGUST CYKA-CYKA
Flight info
| Callsign | CGUST |
|---|---|
| Flight time | 1h 54m |
| Altitude | 11000 |
| Route | VFR |
| Aircraft | PC12/L-V/N |
Departure
| Time | 2026-04-14 09:31 |
|---|---|
| Airport | Kamloops John Moose Fulton Field Regional Airport (CYKA) |
Arrival
| Time | 2026-04-14 11:26 |
|---|---|
| Airport | Kamloops John Moose Fulton Field Regional Airport (CYKA) |
| Time | Latitude | Longitude | Altitude | Speed | Heading |
|---|---|---|---|---|---|
| 2026-04-14 09:20 | 50.70644 | -120.43778 | 1131 ft | 0 kts | 340° |
| 2026-04-14 09:26 | 50.70641 | -120.43777 | 1134 ft | 2 kts | 340° |
| 2026-04-14 09:26 | 50.70634 | -120.43775 | 1132 ft | 0 kts | 2° |
| 2026-04-14 09:27 | 50.70642 | -120.43769 | 1131 ft | 2 kts | 49° |
| 2026-04-14 09:27 | 50.70628 | -120.43743 | 1132 ft | 3 kts | 155° |
| 2026-04-14 09:27 | 50.70605 | -120.43725 | 1132 ft | 7 kts | 153° |
| 2026-04-14 09:27 | 50.70541 | -120.43677 | 1132 ft | 12 kts | 156° |
| 2026-04-14 09:28 | 50.70470 | -120.43628 | 1131 ft | 11 kts | 154° |
| 2026-04-14 09:28 | 50.70401 | -120.43578 | 1131 ft | 11 kts | 156° |
| 2026-04-14 09:28 | 50.70329 | -120.43530 | 1131 ft | 11 kts | 156° |
| 2026-04-14 09:28 | 50.70290 | -120.43499 | 1131 ft | 7 kts | 136° |
| 2026-04-14 09:29 | 50.70266 | -120.43401 | 1132 ft | 13 kts | 102° |
| 2026-04-14 09:29 | 50.70227 | -120.43266 | 1131 ft | 14 kts | 141° |
| 2026-04-14 09:29 | 50.70143 | -120.43188 | 1131 ft | 14 kts | 170° |
| 2026-04-14 09:29 | 50.70065 | -120.43243 | 1132 ft | 13 kts | 257° |
| 2026-04-14 09:30 | 50.70092 | -120.43446 | 1132 ft | 35 kts | 283° |
| 2026-04-14 09:30 | 50.70185 | -120.44057 | 1133 ft | 77 kts | 283° |
| 2026-04-14 09:30 | 50.70331 | -120.45027 | 1142 ft | 102 kts | 283° |
| 2026-04-14 09:30 | 50.70502 | -120.46142 | 1378 ft | 106 kts | 284° |
| 2026-04-14 09:31 | 50.70699 | -120.47281 | 1698 ft | 110 kts | 285° |
| 2026-04-14 09:31 | 50.70899 | -120.48475 | 1989 ft | 112 kts | 284° |
| 2026-04-14 09:31 | 50.71133 | -120.49649 | 2269 ft | 111 kts | 288° |
| 2026-04-14 09:31 | 50.71363 | -120.50782 | 2532 ft | 110 kts | 263° |
| 2026-04-14 09:32 | 50.70913 | -120.51750 | 2733 ft | 115 kts | 219° |
| 2026-04-14 09:32 | 50.70257 | -120.52520 | 3001 ft | 121 kts | 214° |
| 2026-04-14 09:32 | 50.68642 | -120.53878 | 3578 ft | 145 kts | 182° |
| 2026-04-14 09:33 | 50.67603 | -120.53699 | 3850 ft | 157 kts | 169° |
| 2026-04-14 09:33 | 50.66496 | -120.53308 | 4109 ft | 169 kts | 168° |
| 2026-04-14 09:33 | 50.65320 | -120.52875 | 4375 ft | 178 kts | 168° |
| 2026-04-14 09:33 | 50.64085 | -120.52659 | 4638 ft | 184 kts | 181° |
| 2026-04-14 09:34 | 50.62809 | -120.52954 | 4868 ft | 186 kts | 197° |
| 2026-04-14 09:34 | 50.61598 | -120.53646 | 5138 ft | 184 kts | 206° |
| 2026-04-14 09:34 | 50.60443 | -120.54546 | 5398 ft | 185 kts | 210° |
| 2026-04-14 09:34 | 50.59331 | -120.55538 | 5636 ft | 183 kts | 213° |
| 2026-04-14 09:35 | 50.58242 | -120.56569 | 5873 ft | 182 kts | 213° |
| 2026-04-14 09:35 | 50.57167 | -120.57610 | 6107 ft | 181 kts | 216° |
| 2026-04-14 09:35 | 50.56094 | -120.58657 | 6350 ft | 181 kts | 215° |
| 2026-04-14 09:35 | 50.55018 | -120.59710 | 6612 ft | 183 kts | 215° |
| 2026-04-14 09:36 | 50.53925 | -120.60776 | 6882 ft | 186 kts | 216° |
| 2026-04-14 09:36 | 50.52829 | -120.61841 | 7155 ft | 188 kts | 215° |
| 2026-04-14 09:36 | 50.51713 | -120.62924 | 7417 ft | 189 kts | 215° |
| 2026-04-14 09:36 | 50.50589 | -120.64013 | 7682 ft | 190 kts | 215° |
| 2026-04-14 09:37 | 50.49457 | -120.65107 | 7948 ft | 192 kts | 216° |
| 2026-04-14 09:37 | 50.48309 | -120.66223 | 7993 ft | 196 kts | 216° |
| 2026-04-14 09:37 | 50.47140 | -120.67357 | 8018 ft | 199 kts | 216° |
| 2026-04-14 09:37 | 50.45951 | -120.68508 | 8021 ft | 202 kts | 215° |
| 2026-04-14 09:38 | 50.44752 | -120.69664 | 8013 ft | 202 kts | 214° |
| 2026-04-14 09:38 | 50.43554 | -120.70823 | 8018 ft | 203 kts | 216° |
| 2026-04-14 09:38 | 50.42362 | -120.71972 | 8034 ft | 205 kts | 215° |
| 2026-04-14 09:38 | 50.41147 | -120.73143 | 8029 ft | 205 kts | 216° |
| 2026-04-14 09:39 | 50.39933 | -120.74313 | 8020 ft | 204 kts | 215° |
| 2026-04-14 09:39 | 50.38721 | -120.75480 | 8025 ft | 205 kts | 214° |
| 2026-04-14 09:39 | 50.37505 | -120.76649 | 8033 ft | 206 kts | 216° |
| 2026-04-14 09:39 | 50.36285 | -120.77824 | 8036 ft | 206 kts | 215° |
| 2026-04-14 09:40 | 50.35062 | -120.79000 | 8052 ft | 207 kts | 215° |
| 2026-04-14 09:40 | 50.33832 | -120.80182 | 8056 ft | 208 kts | 215° |
| 2026-04-14 09:40 | 50.32600 | -120.81366 | 8059 ft | 208 kts | 215° |
| 2026-04-14 09:40 | 50.31368 | -120.82548 | 8050 ft | 208 kts | 215° |
| 2026-04-14 09:41 | 50.30136 | -120.83729 | 8038 ft | 207 kts | 215° |
| 2026-04-14 09:41 | 50.28914 | -120.84900 | 8028 ft | 205 kts | 215° |
| 2026-04-14 09:41 | 50.27702 | -120.86064 | 8016 ft | 204 kts | 215° |
| 2026-04-14 09:41 | 50.26497 | -120.87208 | 8014 ft | 201 kts | 216° |
| 2026-04-14 09:42 | 50.25314 | -120.88345 | 8022 ft | 198 kts | 217° |
| 2026-04-14 09:42 | 50.24144 | -120.89474 | 8028 ft | 197 kts | 217° |
| 2026-04-14 09:42 | 50.22996 | -120.90580 | 8024 ft | 196 kts | 217° |
| 2026-04-14 09:42 | 50.21840 | -120.91690 | 8012 ft | 194 kts | 216° |
| 2026-04-14 09:43 | 50.20688 | -120.92794 | 8016 ft | 194 kts | 216° |
| 2026-04-14 09:43 | 50.19545 | -120.93884 | 8035 ft | 192 kts | 216° |
| 2026-04-14 09:43 | 50.18401 | -120.94963 | 8023 ft | 192 kts | 217° |
| 2026-04-14 09:43 | 50.17261 | -120.96051 | 8043 ft | 193 kts | 216° |
| 2026-04-14 09:44 | 50.16113 | -120.97144 | 8038 ft | 194 kts | 216° |
| 2026-04-14 09:44 | 50.14957 | -120.98245 | 8039 ft | 195 kts | 217° |
| 2026-04-14 09:44 | 50.13800 | -120.99352 | 8048 ft | 196 kts | 216° |
| 2026-04-14 09:44 | 50.12636 | -121.00464 | 8046 ft | 196 kts | 217° |
| 2026-04-14 09:45 | 50.11475 | -121.01571 | 8033 ft | 195 kts | 216° |
| 2026-04-14 09:45 | 50.10309 | -121.02678 | 8057 ft | 197 kts | 216° |
| 2026-04-14 09:45 | 50.09138 | -121.03789 | 8068 ft | 198 kts | 216° |
| 2026-04-14 09:45 | 50.07961 | -121.04906 | 8064 ft | 198 kts | 216° |
| 2026-04-14 09:46 | 50.06784 | -121.06024 | 8051 ft | 198 kts | 216° |
| 2026-04-14 09:46 | 50.05611 | -121.07132 | 8040 ft | 195 kts | 216° |
| 2026-04-14 09:46 | 50.04455 | -121.08222 | 8028 ft | 193 kts | 216° |
| 2026-04-14 09:46 | 50.03311 | -121.09300 | 8031 ft | 192 kts | 216° |
| 2026-04-14 09:47 | 50.02162 | -121.10385 | 8064 ft | 194 kts | 216° |
| 2026-04-14 09:47 | 50.01009 | -121.11478 | 8029 ft | 193 kts | 216° |
| 2026-04-14 09:47 | 49.99872 | -121.12548 | 8011 ft | 189 kts | 215° |
| 2026-04-14 09:47 | 49.98747 | -121.13605 | 8051 ft | 190 kts | 216° |
| 2026-04-14 09:48 | 49.97643 | -121.14645 | 8028 ft | 186 kts | 216° |
| 2026-04-14 09:48 | 49.96530 | -121.15696 | 8057 ft | 188 kts | 216° |
| 2026-04-14 09:48 | 49.95407 | -121.16755 | 8066 ft | 189 kts | 216° |
| 2026-04-14 09:48 | 49.94282 | -121.17814 | 8066 ft | 189 kts | 216° |
| 2026-04-14 09:49 | 49.93148 | -121.18880 | 8078 ft | 191 kts | 216° |
| 2026-04-14 09:49 | 49.92023 | -121.19937 | 8016 ft | 186 kts | 215° |
| 2026-04-14 09:49 | 49.90921 | -121.20975 | 8018 ft | 184 kts | 216° |
| 2026-04-14 09:49 | 49.89820 | -121.22012 | 8054 ft | 185 kts | 216° |
| 2026-04-14 09:50 | 49.88701 | -121.23062 | 8100 ft | 191 kts | 216° |
| 2026-04-14 09:50 | 49.87551 | -121.24149 | 8094 ft | 195 kts | 216° |
| 2026-04-14 09:50 | 49.86386 | -121.25250 | 8109 ft | 196 kts | 216° |
| 2026-04-14 09:50 | 49.85214 | -121.26350 | 8131 ft | 199 kts | 216° |
| 2026-04-14 09:51 | 49.84028 | -121.27462 | 8136 ft | 200 kts | 215° |
| 2026-04-14 09:51 | 49.82831 | -121.28583 | 8147 ft | 202 kts | 215° |
| 2026-04-14 09:51 | 49.81628 | -121.29709 | 8133 ft | 202 kts | 216° |
| 2026-04-14 09:51 | 49.80425 | -121.30835 | 8118 ft | 202 kts | 216° |
| 2026-04-14 09:52 | 49.79223 | -121.31959 | 8132 ft | 202 kts | 216° |
| 2026-04-14 09:52 | 49.78039 | -121.33066 | 8097 ft | 199 kts | 215° |
| 2026-04-14 09:52 | 49.76854 | -121.34173 | 8133 ft | 200 kts | 215° |
| 2026-04-14 09:52 | 49.75660 | -121.35302 | 8137 ft | 201 kts | 213° |
| 2026-04-14 09:53 | 49.74464 | -121.36413 | 8149 ft | 200 kts | 213° |
| 2026-04-14 09:53 | 49.73262 | -121.37520 | 8153 ft | 201 kts | 213° |
| 2026-04-14 09:53 | 49.72064 | -121.38625 | 8127 ft | 199 kts | 213° |
| 2026-04-14 09:53 | 49.70871 | -121.39729 | 8165 ft | 201 kts | 213° |
| 2026-04-14 09:54 | 49.69671 | -121.40845 | 8162 ft | 201 kts | 213° |
| 2026-04-14 09:54 | 49.68480 | -121.41956 | 8143 ft | 199 kts | 213° |
| 2026-04-14 09:54 | 49.67312 | -121.43047 | 8112 ft | 197 kts | 213° |
| 2026-04-14 09:54 | 49.66147 | -121.44134 | 8159 ft | 196 kts | 213° |
| 2026-04-14 09:55 | 49.64986 | -121.45217 | 8140 ft | 194 kts | 213° |
| 2026-04-14 09:55 | 49.63834 | -121.46291 | 8131 ft | 192 kts | 213° |
| 2026-04-14 09:55 | 49.62697 | -121.47343 | 8123 ft | 190 kts | 213° |
| 2026-04-14 09:55 | 49.61557 | -121.48397 | 8139 ft | 191 kts | 213° |
| 2026-04-14 09:56 | 49.60393 | -121.49475 | 8041 ft | 198 kts | 213° |
| 2026-04-14 09:56 | 49.59203 | -121.50577 | 7894 ft | 200 kts | 213° |
| 2026-04-14 09:56 | 49.58001 | -121.51694 | 7778 ft | 203 kts | 213° |
| 2026-04-14 09:56 | 49.56780 | -121.52830 | 7697 ft | 204 kts | 213° |
| 2026-04-14 09:57 | 49.55572 | -121.53947 | 7550 ft | 201 kts | 213° |
| 2026-04-14 09:57 | 49.54384 | -121.55051 | 7376 ft | 198 kts | 212° |
| 2026-04-14 09:57 | 49.53209 | -121.56146 | 7275 ft | 196 kts | 213° |
| 2026-04-14 09:57 | 49.52048 | -121.57206 | 7178 ft | 197 kts | 213° |
| 2026-04-14 09:58 | 49.50872 | -121.58279 | 7092 ft | 196 kts | 213° |
| 2026-04-14 09:58 | 49.49721 | -121.59336 | 6948 ft | 190 kts | 213° |
| 2026-04-14 09:58 | 49.48595 | -121.60355 | 6816 ft | 187 kts | 215° |
| 2026-04-14 09:58 | 49.47469 | -121.61407 | 6762 ft | 191 kts | 214° |
| 2026-04-14 09:59 | 49.46366 | -121.62463 | 6592 ft | 182 kts | 214° |
| 2026-04-14 09:59 | 49.45279 | -121.63460 | 6446 ft | 182 kts | 213° |
| 2026-04-14 09:59 | 49.44183 | -121.64459 | 6334 ft | 184 kts | 213° |
| 2026-04-14 09:59 | 49.43083 | -121.65457 | 6197 ft | 183 kts | 214° |
| 2026-04-14 10:00 | 49.41992 | -121.66453 | 6045 ft | 182 kts | 214° |
| 2026-04-14 10:00 | 49.40905 | -121.67452 | 5909 ft | 181 kts | 213° |
| 2026-04-14 10:00 | 49.39821 | -121.68448 | 5781 ft | 183 kts | 213° |
| 2026-04-14 10:00 | 49.38731 | -121.69441 | 5647 ft | 181 kts | 214° |
| 2026-04-14 10:01 | 49.37647 | -121.70435 | 5544 ft | 183 kts | 213° |
| 2026-04-14 10:01 | 49.36562 | -121.71446 | 5417 ft | 183 kts | 214° |
| 2026-04-14 10:01 | 49.35470 | -121.72451 | 5291 ft | 183 kts | 213° |
| 2026-04-14 10:01 | 49.34391 | -121.73436 | 5169 ft | 183 kts | 213° |
| 2026-04-14 10:02 | 49.33294 | -121.74435 | 5052 ft | 183 kts | 213° |
| 2026-04-14 10:02 | 49.32192 | -121.75432 | 4920 ft | 184 kts | 213° |
| 2026-04-14 10:02 | 49.31149 | -121.76378 | 4702 ft | 164 kts | 214° |
| 2026-04-14 10:02 | 49.30211 | -121.77235 | 4510 ft | 151 kts | 214° |
| 2026-04-14 10:03 | 49.29338 | -121.78034 | 4308 ft | 142 kts | 215° |
| 2026-04-14 10:03 | 49.28508 | -121.78802 | 4114 ft | 136 kts | 214° |
| 2026-04-14 10:03 | 49.27706 | -121.79532 | 3918 ft | 133 kts | 213° |
| 2026-04-14 10:03 | 49.26921 | -121.80247 | 3682 ft | 129 kts | 214° |
| 2026-04-14 10:04 | 49.26142 | -121.80930 | 3481 ft | 129 kts | 210° |
| 2026-04-14 10:04 | 49.25325 | -121.81509 | 3266 ft | 130 kts | 206° |
| 2026-04-14 10:04 | 49.24502 | -121.82044 | 3107 ft | 127 kts | 206° |
| 2026-04-14 10:04 | 49.23690 | -121.82553 | 2961 ft | 125 kts | 205° |
| 2026-04-14 10:05 | 49.22889 | -121.83048 | 2824 ft | 123 kts | 205° |
| 2026-04-14 10:05 | 49.22090 | -121.83541 | 2650 ft | 124 kts | 205° |
| 2026-04-14 10:05 | 49.21291 | -121.84035 | 2496 ft | 123 kts | 205° |
| 2026-04-14 10:05 | 49.20502 | -121.84528 | 2336 ft | 122 kts | 204° |
| 2026-04-14 10:06 | 49.19727 | -121.85024 | 2181 ft | 122 kts | 205° |
| 2026-04-14 10:06 | 49.18937 | -121.85532 | 1914 ft | 125 kts | 205° |
| 2026-04-14 10:06 | 49.18150 | -121.86067 | 1804 ft | 119 kts | 204° |
| 2026-04-14 10:06 | 49.17422 | -121.86566 | 1585 ft | 111 kts | 205° |
| 2026-04-14 10:07 | 49.16726 | -121.87053 | 1350 ft | 109 kts | 205° |
| 2026-04-14 10:07 | 49.16066 | -121.87512 | 1214 ft | 99 kts | 205° |
| 2026-04-14 10:07 | 49.15479 | -121.87917 | 1132 ft | 88 kts | 204° |
| 2026-04-14 10:07 | 49.14901 | -121.88314 | 956 ft | 92 kts | 205° |
| 2026-04-14 10:08 | 49.14329 | -121.88707 | 871 ft | 87 kts | 202° |
| 2026-04-14 10:08 | 49.13783 | -121.89059 | 843 ft | 89 kts | 202° |
| 2026-04-14 10:08 | 49.13165 | -121.89410 | 832 ft | 100 kts | 200° |
| 2026-04-14 10:08 | 49.12478 | -121.89792 | 832 ft | 109 kts | 201° |
| 2026-04-14 10:09 | 49.11761 | -121.90209 | 835 ft | 110 kts | 222° |
| 2026-04-14 10:09 | 49.11244 | -121.91022 | 805 ft | 105 kts | 216° |
| 2026-04-14 10:09 | 49.10852 | -121.91885 | 767 ft | 107 kts | 267° |
| 2026-04-14 10:09 | 49.11335 | -121.92676 | 628 ft | 115 kts | 6° |
| 2026-04-14 10:10 | 49.11777 | -121.91858 | 632 ft | 104 kts | 104° |
| 2026-04-14 10:10 | 49.11296 | -121.91341 | 698 ft | 86 kts | 197° |
| 2026-04-14 10:10 | 49.10812 | -121.91877 | 718 ft | 88 kts | 240° |
| 2026-04-14 10:10 | 49.11027 | -121.92740 | 693 ft | 105 kts | 340° |
| 2026-04-14 10:11 | 49.11652 | -121.92301 | 712 ft | 112 kts | 70° |
| 2026-04-14 10:11 | 49.11414 | -121.91350 | 865 ft | 100 kts | 156° |
| 2026-04-14 10:11 | 49.10846 | -121.91719 | 848 ft | 106 kts | 251° |
| 2026-04-14 10:11 | 49.11140 | -121.92742 | 720 ft | 120 kts | 329° |
| 2026-04-14 10:12 | 49.11900 | -121.92524 | 743 ft | 120 kts | 53° |
| 2026-04-14 10:12 | 49.12195 | -121.91386 | 916 ft | 109 kts | 66° |
| 2026-04-14 10:12 | 49.12559 | -121.90327 | 924 ft | 116 kts | 61° |
| 2026-04-14 10:12 | 49.12955 | -121.89310 | 1118 ft | 108 kts | 58° |
| 2026-04-14 10:13 | 49.13455 | -121.88488 | 1300 ft | 104 kts | 41° |
| 2026-04-14 10:13 | 49.14025 | -121.87808 | 1480 ft | 105 kts | 37° |
| 2026-04-14 10:13 | 49.14618 | -121.87139 | 1659 ft | 107 kts | 36° |
| 2026-04-14 10:13 | 49.15265 | -121.86556 | 1838 ft | 110 kts | 26° |
| 2026-04-14 10:14 | 49.15973 | -121.86073 | 2031 ft | 114 kts | 22° |
| 2026-04-14 10:14 | 49.16476 | -121.85772 | 2154 ft | 116 kts | 20° |
| 2026-04-14 10:14 | 49.17261 | -121.85349 | 2336 ft | 124 kts | 19° |
| 2026-04-14 10:14 | 49.18117 | -121.84904 | 2525 ft | 139 kts | 19° |
| 2026-04-14 10:15 | 49.19092 | -121.84411 | 2592 ft | 158 kts | 19° |
| 2026-04-14 10:15 | 49.20186 | -121.83786 | 2897 ft | 178 kts | 19° |
| 2026-04-14 10:15 | 49.21406 | -121.83020 | 3001 ft | 201 kts | 20° |
| 2026-04-14 10:15 | 49.22761 | -121.82160 | 2787 ft | 217 kts | 21° |
| 2026-04-14 10:16 | 49.24107 | -121.81307 | 2577 ft | 200 kts | 21° |
| 2026-04-14 10:16 | 49.25347 | -121.80530 | 2331 ft | 186 kts | 21° |
| 2026-04-14 10:16 | 49.26523 | -121.79812 | 2071 ft | 178 kts | 21° |
| 2026-04-14 10:16 | 49.27650 | -121.79126 | 1817 ft | 171 kts | 21° |
| 2026-04-14 10:17 | 49.28740 | -121.78462 | 1557 ft | 166 kts | 21° |
| 2026-04-14 10:17 | 49.29786 | -121.77867 | 1373 ft | 151 kts | 16° |
| 2026-04-14 10:17 | 49.30691 | -121.77854 | 1328 ft | 124 kts | 316° |
| 2026-04-14 10:17 | 49.30842 | -121.78919 | 1238 ft | 101 kts | 233° |
| 2026-04-14 10:18 | 49.29778 | -121.78545 | 1003 ft | 102 kts | 102° |
| 2026-04-14 10:18 | 49.29986 | -121.77547 | 1003 ft | 102 kts | 32° |
| 2026-04-14 10:18 | 49.30640 | -121.77406 | 1005 ft | 90 kts | 320° |
| 2026-04-14 10:19 | 49.30742 | -121.78220 | 1097 ft | 84 kts | 230° |
| 2026-04-14 10:19 | 49.30190 | -121.78447 | 1186 ft | 98 kts | 159° |
| 2026-04-14 10:19 | 49.29789 | -121.77571 | 1238 ft | 115 kts | 86° |
| 2026-04-14 10:19 | 49.30341 | -121.76795 | 1306 ft | 128 kts | 354° |
| 2026-04-14 10:20 | 49.31215 | -121.77156 | 1517 ft | 138 kts | 324° |
| 2026-04-14 10:20 | 49.32033 | -121.77995 | 1687 ft | 147 kts | 334° |
| 2026-04-14 10:20 | 49.32964 | -121.78817 | 1936 ft | 164 kts | 328° |
| 2026-04-14 10:20 | 49.34110 | -121.79055 | 2167 ft | 180 kts | 19° |
| 2026-04-14 10:21 | 49.35013 | -121.77711 | 2416 ft | 190 kts | 66° |
| 2026-04-14 10:21 | 49.35477 | -121.75767 | 2678 ft | 198 kts | 72° |
| 2026-04-14 10:21 | 49.35895 | -121.73719 | 2986 ft | 202 kts | 75° |
| 2026-04-14 10:21 | 49.36307 | -121.71644 | 3267 ft | 204 kts | 75° |
| 2026-04-14 10:22 | 49.36704 | -121.69539 | 3414 ft | 212 kts | 79° |
| 2026-04-14 10:22 | 49.36955 | -121.67279 | 3472 ft | 219 kts | 83° |
| 2026-04-14 10:22 | 49.37162 | -121.64907 | 3498 ft | 228 kts | 85° |
| 2026-04-14 10:22 | 49.37341 | -121.62564 | 3507 ft | 213 kts | 86° |
| 2026-04-14 10:23 | 49.37495 | -121.60457 | 3486 ft | 186 kts | 85° |
| 2026-04-14 10:23 | 49.37635 | -121.58551 | 3134 ft | 174 kts | 86° |
| 2026-04-14 10:23 | 49.37762 | -121.56739 | 2837 ft | 168 kts | 85° |
| 2026-04-14 10:23 | 49.37856 | -121.54982 | 2542 ft | 163 kts | 86° |
| 2026-04-14 10:24 | 49.37936 | -121.53273 | 2288 ft | 160 kts | 86° |
| 2026-04-14 10:24 | 49.38013 | -121.51556 | 2061 ft | 160 kts | 85° |
| 2026-04-14 10:24 | 49.38098 | -121.49844 | 1856 ft | 161 kts | 86° |
| 2026-04-14 10:24 | 49.38194 | -121.48132 | 1643 ft | 159 kts | 86° |
| 2026-04-14 10:25 | 49.38305 | -121.46513 | 1412 ft | 148 kts | 87° |
| 2026-04-14 10:25 | 49.38402 | -121.45010 | 1289 ft | 135 kts | 86° |
| 2026-04-14 10:25 | 49.38499 | -121.43637 | 1200 ft | 125 kts | 87° |
| 2026-04-14 10:25 | 49.38601 | -121.42352 | 1122 ft | 119 kts | 86° |
| 2026-04-14 10:26 | 49.38701 | -121.41103 | 1018 ft | 117 kts | 86° |
| 2026-04-14 10:26 | 49.38784 | -121.39861 | 901 ft | 116 kts | 84° |
| 2026-04-14 10:26 | 49.38858 | -121.38652 | 905 ft | 111 kts | 94° |
| 2026-04-14 10:26 | 49.38399 | -121.37805 | 1057 ft | 110 kts | 163° |
| 2026-04-14 10:27 | 49.37685 | -121.37372 | 1210 ft | 113 kts | 131° |
| 2026-04-14 10:27 | 49.37794 | -121.36234 | 1027 ft | 126 kts | 31° |
| 2026-04-14 10:27 | 49.38523 | -121.36357 | 1122 ft | 102 kts | 303° |
| 2026-04-14 10:27 | 49.38469 | -121.37378 | 1042 ft | 106 kts | 226° |
| 2026-04-14 10:28 | 49.37829 | -121.37643 | 1120 ft | 101 kts | 152° |
| 2026-04-14 10:28 | 49.37516 | -121.36732 | 1138 ft | 105 kts | 81° |
| 2026-04-14 10:28 | 49.38030 | -121.36014 | 1049 ft | 115 kts | 353° |
| 2026-04-14 10:28 | 49.38566 | -121.36722 | 1100 ft | 104 kts | 277° |
| 2026-04-14 10:29 | 49.38271 | -121.37644 | 1063 ft | 106 kts | 206° |
| 2026-04-14 10:29 | 49.37574 | -121.37745 | 1320 ft | 94 kts | 176° |
| 2026-04-14 10:29 | 49.36957 | -121.37429 | 1548 ft | 96 kts | 143° |
| 2026-04-14 10:29 | 49.36533 | -121.36529 | 1616 ft | 115 kts | 123° |
| 2026-04-14 10:30 | 49.36028 | -121.35568 | 1534 ft | 116 kts | 116° |
| 2026-04-14 10:30 | 49.36119 | -121.34370 | 1321 ft | 122 kts | 49° |
| 2026-04-14 10:30 | 49.36850 | -121.34239 | 1473 ft | 105 kts | 323° |
| 2026-04-14 10:30 | 49.37378 | -121.34909 | 1466 ft | 108 kts | 291° |
| 2026-04-14 10:31 | 49.37290 | -121.35949 | 1378 ft | 111 kts | 220° |
| 2026-04-14 10:31 | 49.36504 | -121.35947 | 1028 ft | 127 kts | 136° |
| 2026-04-14 10:31 | 49.36081 | -121.34954 | 1235 ft | 95 kts | 114° |
| 2026-04-14 10:31 | 49.35967 | -121.34006 | 1329 ft | 98 kts | 56° |
| 2026-04-14 10:32 | 49.36547 | -121.33986 | 1469 ft | 95 kts | 303° |
| 2026-04-14 10:32 | 49.36573 | -121.34956 | 1352 ft | 102 kts | 271° |
| 2026-04-14 10:32 | 49.36882 | -121.36011 | 1212 ft | 107 kts | 293° |
| 2026-04-14 10:32 | 49.36607 | -121.36928 | 978 ft | 124 kts | 191° |
| 2026-04-14 10:33 | 49.36168 | -121.36170 | 1088 ft | 114 kts | 80° |
| 2026-04-14 10:33 | 49.36371 | -121.35027 | 1124 ft | 107 kts | 77° |
| 2026-04-14 10:33 | 49.36371 | -121.33941 | 1266 ft | 100 kts | 134° |
| 2026-04-14 10:33 | 49.35866 | -121.33215 | 1382 ft | 99 kts | 171° |
| 2026-04-14 10:34 | 49.36383 | -121.34489 | 1194 ft | 113 kts | 307° |
| 2026-04-14 10:34 | 49.36830 | -121.35417 | 1200 ft | 103 kts | 297° |
| 2026-04-14 10:34 | 49.36557 | -121.36256 | 1133 ft | 113 kts | 182° |
| 2026-04-14 10:35 | 49.36158 | -121.35436 | 1172 ft | 111 kts | 76° |
| 2026-04-14 10:35 | 49.36345 | -121.34378 | 1125 ft | 106 kts | 102° |
| 2026-04-14 10:35 | 49.35905 | -121.33595 | 1501 ft | 93 kts | 136° |
| 2026-04-14 10:35 | 49.35431 | -121.32840 | 1788 ft | 103 kts | 132° |
| 2026-04-14 10:36 | 49.34997 | -121.31990 | 2185 ft | 99 kts | 127° |
| 2026-04-14 10:36 | 49.34760 | -121.30993 | 2495 ft | 106 kts | 92° |
| 2026-04-14 10:36 | 49.34711 | -121.29844 | 2767 ft | 110 kts | 102° |
| 2026-04-14 10:36 | 49.34518 | -121.28729 | 3119 ft | 107 kts | 101° |
| 2026-04-14 10:37 | 49.34399 | -121.27614 | 3539 ft | 106 kts | 95° |
| 2026-04-14 10:37 | 49.34416 | -121.26462 | 3915 ft | 108 kts | 83° |
| 2026-04-14 10:37 | 49.34527 | -121.25300 | 4189 ft | 112 kts | 79° |
| 2026-04-14 10:37 | 49.34665 | -121.24132 | 4466 ft | 113 kts | 77° |
| 2026-04-14 10:38 | 49.34847 | -121.22961 | 4834 ft | 112 kts | 54° |
| 2026-04-14 10:38 | 49.35414 | -121.22242 | 5355 ft | 103 kts | 32° |
| 2026-04-14 10:38 | 49.35697 | -121.21282 | 5802 ft | 107 kts | 95° |
| 2026-04-14 10:38 | 49.35867 | -121.20205 | 6135 ft | 112 kts | 44° |
| 2026-04-14 10:39 | 49.36464 | -121.19409 | 6358 ft | 117 kts | 47° |
| 2026-04-14 10:39 | 49.37198 | -121.19036 | 6678 ft | 116 kts | 352° |
| 2026-04-14 10:39 | 49.38089 | -121.19077 | 6761 ft | 150 kts | 352° |
| 2026-04-14 10:39 | 49.39267 | -121.19210 | 6620 ft | 188 kts | 352° |
| 2026-04-14 10:40 | 49.40684 | -121.19411 | 6570 ft | 218 kts | 351° |
| 2026-04-14 10:40 | 49.42251 | -121.19648 | 6562 ft | 232 kts | 351° |
| 2026-04-14 10:40 | 49.43766 | -121.20366 | 6525 ft | 227 kts | 327° |
| 2026-04-14 10:40 | 49.45160 | -121.21528 | 6485 ft | 228 kts | 327° |
| 2026-04-14 10:41 | 49.46515 | -121.22723 | 6469 ft | 228 kts | 326° |
| 2026-04-14 10:41 | 49.47878 | -121.23962 | 6486 ft | 228 kts | 326° |
| 2026-04-14 10:41 | 49.49253 | -121.25214 | 6501 ft | 231 kts | 326° |
| 2026-04-14 10:41 | 49.50621 | -121.26499 | 6491 ft | 230 kts | 325° |
| 2026-04-14 10:42 | 49.51983 | -121.27789 | 6479 ft | 229 kts | 326° |
| 2026-04-14 10:42 | 49.53318 | -121.29077 | 6469 ft | 226 kts | 324° |
| 2026-04-14 10:42 | 49.54666 | -121.30357 | 6494 ft | 228 kts | 324° |
| 2026-04-14 10:42 | 49.56030 | -121.31635 | 6504 ft | 231 kts | 325° |
| 2026-04-14 10:43 | 49.57407 | -121.32935 | 6507 ft | 232 kts | 325° |
| 2026-04-14 10:43 | 49.58791 | -121.34242 | 6517 ft | 234 kts | 325° |
| 2026-04-14 10:43 | 49.60175 | -121.35546 | 6488 ft | 232 kts | 325° |
| 2026-04-14 10:43 | 49.61616 | -121.36651 | 6484 ft | 236 kts | 343° |
| 2026-04-14 10:44 | 49.63254 | -121.36964 | 6474 ft | 238 kts | 348° |
| 2026-04-14 10:44 | 49.64896 | -121.37329 | 6470 ft | 239 kts | 347° |
| 2026-04-14 10:44 | 49.66551 | -121.37731 | 6490 ft | 242 kts | 346° |
| 2026-04-14 10:44 | 49.68224 | -121.38140 | 6497 ft | 245 kts | 346° |
| 2026-04-14 10:45 | 49.69886 | -121.38548 | 6403 ft | 244 kts | 346° |
| 2026-04-14 10:45 | 49.71509 | -121.38941 | 6216 ft | 226 kts | 347° |
| 2026-04-14 10:45 | 49.73031 | -121.39312 | 5692 ft | 217 kts | 347° |
| 2026-04-14 10:45 | 49.74499 | -121.39707 | 5147 ft | 211 kts | 347° |
| 2026-04-14 10:46 | 49.75723 | -121.40698 | 4456 ft | 203 kts | 302° |
| 2026-04-14 10:46 | 49.76135 | -121.42815 | 3295 ft | 214 kts | 278° |
| 2026-04-14 10:46 | 49.76875 | -121.44759 | 2636 ft | 217 kts | 323° |
| 2026-04-14 10:46 | 49.78220 | -121.45641 | 2261 ft | 204 kts | 339° |
| 2026-04-14 10:47 | 49.79450 | -121.46363 | 2298 ft | 172 kts | 331° |
| 2026-04-14 10:47 | 49.80489 | -121.46979 | 2160 ft | 146 kts | 356° |
| 2026-04-14 10:47 | 49.81413 | -121.46901 | 2105 ft | 126 kts | 10° |
| 2026-04-14 10:47 | 49.81937 | -121.46041 | 1955 ft | 112 kts | 94° |
| 2026-04-14 10:48 | 49.81449 | -121.45311 | 1699 ft | 108 kts | 181° |
| 2026-04-14 10:48 | 49.80721 | -121.45856 | 1169 ft | 122 kts | 202° |
| 2026-04-14 10:48 | 49.79979 | -121.45868 | 1077 ft | 107 kts | 155° |
| 2026-04-14 10:48 | 49.79322 | -121.45248 | 906 ft | 114 kts | 157° |
| 2026-04-14 10:49 | 49.78562 | -121.45274 | 877 ft | 108 kts | 193° |
| 2026-04-14 10:49 | 49.77861 | -121.45257 | 1060 ft | 105 kts | 149° |
| 2026-04-14 10:49 | 49.77257 | -121.44484 | 896 ft | 112 kts | 154° |
| 2026-04-14 10:49 | 49.76469 | -121.44398 | 990 ft | 112 kts | 182° |
| 2026-04-14 10:50 | 49.75830 | -121.44103 | 1272 ft | 97 kts | 131° |
| 2026-04-14 10:50 | 49.75900 | -121.43089 | 1288 ft | 113 kts | 36° |
| 2026-04-14 10:50 | 49.76524 | -121.43332 | 1533 ft | 110 kts | 288° |
| 2026-04-14 10:50 | 49.77048 | -121.44410 | 984 ft | 140 kts | 335° |
| 2026-04-14 10:51 | 49.77944 | -121.45001 | 754 ft | 136 kts | 340° |
| 2026-04-14 10:51 | 49.78885 | -121.45137 | 851 ft | 146 kts | 359° |
| 2026-04-14 10:51 | 49.79965 | -121.45498 | 999 ft | 172 kts | 338° |
| 2026-04-14 10:51 | 49.81112 | -121.46126 | 1433 ft | 178 kts | 341° |
| 2026-04-14 10:52 | 49.82320 | -121.46679 | 1876 ft | 183 kts | 343° |
| 2026-04-14 10:52 | 49.83336 | -121.47733 | 2405 ft | 179 kts | 303° |
| 2026-04-14 10:52 | 49.83899 | -121.49447 | 2940 ft | 179 kts | 292° |
| 2026-04-14 10:52 | 49.84438 | -121.51194 | 3429 ft | 181 kts | 307° |
| 2026-04-14 10:53 | 49.85577 | -121.51991 | 3948 ft | 179 kts | 349° |
| 2026-04-14 10:53 | 49.86768 | -121.52152 | 4761 ft | 167 kts | 351° |
| 2026-04-14 10:53 | 49.87954 | -121.52297 | 5424 ft | 172 kts | 351° |
| 2026-04-14 10:53 | 49.89153 | -121.52375 | 6078 ft | 175 kts | 357° |
| 2026-04-14 10:54 | 49.90367 | -121.52121 | 6455 ft | 184 kts | 29° |
| 2026-04-14 10:54 | 49.91280 | -121.50776 | 6881 ft | 184 kts | 43° |
| 2026-04-14 10:54 | 49.92188 | -121.49326 | 7157 ft | 188 kts | 45° |
| 2026-04-14 10:54 | 49.93113 | -121.47815 | 7309 ft | 204 kts | 45° |
| 2026-04-14 10:55 | 49.94155 | -121.46137 | 7422 ft | 227 kts | 40° |
| 2026-04-14 10:55 | 49.95389 | -121.44465 | 7445 ft | 242 kts | 38° |
| 2026-04-14 10:55 | 49.96724 | -121.42762 | 7482 ft | 254 kts | 36° |
| 2026-04-14 10:55 | 49.98122 | -121.41044 | 7571 ft | 256 kts | 36° |
| 2026-04-14 10:56 | 49.99521 | -121.39323 | 7683 ft | 257 kts | 36° |
| 2026-04-14 10:56 | 50.00932 | -121.37595 | 7803 ft | 258 kts | 35° |
| 2026-04-14 10:56 | 50.02326 | -121.35856 | 7927 ft | 259 kts | 36° |
| 2026-04-14 10:56 | 50.03747 | -121.34099 | 7961 ft | 263 kts | 36° |
| 2026-04-14 10:57 | 50.05194 | -121.32341 | 7970 ft | 264 kts | 35° |
| 2026-04-14 10:57 | 50.06640 | -121.30567 | 7971 ft | 265 kts | 36° |
| 2026-04-14 10:57 | 50.08088 | -121.28788 | 7951 ft | 266 kts | 35° |
| 2026-04-14 10:57 | 50.09548 | -121.26989 | 7944 ft | 266 kts | 35° |
| 2026-04-14 10:58 | 50.10988 | -121.25223 | 7934 ft | 265 kts | 36° |
| 2026-04-14 10:58 | 50.12442 | -121.23440 | 7955 ft | 266 kts | 35° |
| 2026-04-14 10:58 | 50.13897 | -121.21633 | 7966 ft | 268 kts | 35° |
| 2026-04-14 10:58 | 50.15349 | -121.19822 | 7942 ft | 267 kts | 35° |
| 2026-04-14 10:59 | 50.16789 | -121.18016 | 7949 ft | 266 kts | 36° |
| 2026-04-14 10:59 | 50.18236 | -121.16207 | 7954 ft | 267 kts | 35° |
| 2026-04-14 10:59 | 50.19672 | -121.14437 | 7964 ft | 264 kts | 36° |
| 2026-04-14 10:59 | 50.21117 | -121.12695 | 7943 ft | 261 kts | 36° |
| 2026-04-14 11:00 | 50.22548 | -121.10983 | 7926 ft | 257 kts | 36° |
| 2026-04-14 11:00 | 50.23964 | -121.09301 | 7943 ft | 256 kts | 36° |
| 2026-04-14 11:00 | 50.25382 | -121.07611 | 7954 ft | 257 kts | 36° |
| 2026-04-14 11:00 | 50.26807 | -121.05910 | 7970 ft | 259 kts | 36° |
| 2026-04-14 11:01 | 50.27758 | -121.04774 | 7953 ft | 260 kts | 35° |
| 2026-04-14 11:01 | 50.29194 | -121.03059 | 7955 ft | 260 kts | 35° |
| 2026-04-14 11:01 | 50.30636 | -121.01339 | 7986 ft | 260 kts | 36° |
| 2026-04-14 11:01 | 50.32537 | -120.99064 | 8004 ft | 260 kts | 36° |
| 2026-04-14 11:02 | 50.33977 | -120.97341 | 8012 ft | 261 kts | 35° |
| 2026-04-14 11:02 | 50.34950 | -120.96163 | 8010 ft | 261 kts | 36° |
| 2026-04-14 11:02 | 50.36387 | -120.94410 | 8004 ft | 261 kts | 36° |
| 2026-04-14 11:02 | 50.37819 | -120.92659 | 8001 ft | 261 kts | 35° |
| 2026-04-14 11:03 | 50.39237 | -120.90923 | 8000 ft | 262 kts | 36° |
| 2026-04-14 11:03 | 50.40670 | -120.89159 | 7998 ft | 262 kts | 36° |
| 2026-04-14 11:03 | 50.42102 | -120.87399 | 8002 ft | 261 kts | 35° |
| 2026-04-14 11:03 | 50.43504 | -120.85670 | 7994 ft | 250 kts | 36° |
| 2026-04-14 11:04 | 50.44819 | -120.84042 | 7984 ft | 231 kts | 36° |
| 2026-04-14 11:04 | 50.46037 | -120.82541 | 7982 ft | 215 kts | 36° |
| 2026-04-14 11:04 | 50.47181 | -120.81123 | 7990 ft | 203 kts | 36° |
| 2026-04-14 11:04 | 50.48260 | -120.79771 | 7995 ft | 195 kts | 35° |
| 2026-04-14 11:05 | 50.49294 | -120.78467 | 7990 ft | 186 kts | 34° |
| 2026-04-14 11:05 | 50.50276 | -120.77213 | 7992 ft | 178 kts | 35° |
| 2026-04-14 11:05 | 50.51213 | -120.75993 | 8002 ft | 173 kts | 36° |
| 2026-04-14 11:05 | 50.52130 | -120.74809 | 7997 ft | 169 kts | 35° |
| 2026-04-14 11:06 | 50.53025 | -120.73640 | 7986 ft | 165 kts | 35° |
| 2026-04-14 11:06 | 50.53905 | -120.72489 | 7999 ft | 165 kts | 35° |
| 2026-04-14 11:06 | 50.54790 | -120.71335 | 8000 ft | 166 kts | 36° |
| 2026-04-14 11:06 | 50.55664 | -120.70195 | 8003 ft | 165 kts | 36° |
| 2026-04-14 11:07 | 50.56550 | -120.69050 | 8005 ft | 164 kts | 35° |
| 2026-04-14 11:07 | 50.57432 | -120.67902 | 8000 ft | 164 kts | 35° |
| 2026-04-14 11:07 | 50.58298 | -120.66745 | 7995 ft | 163 kts | 37° |
| 2026-04-14 11:07 | 50.59163 | -120.65602 | 7999 ft | 163 kts | 35° |
| 2026-04-14 11:08 | 50.60035 | -120.64466 | 7997 ft | 162 kts | 34° |
| 2026-04-14 11:08 | 50.60906 | -120.63375 | 8000 ft | 158 kts | 37° |
| 2026-04-14 11:08 | 50.61773 | -120.62313 | 7989 ft | 157 kts | 36° |
| 2026-04-14 11:08 | 50.62626 | -120.61260 | 7967 ft | 155 kts | 36° |
| 2026-04-14 11:09 | 50.63472 | -120.60217 | 7956 ft | 153 kts | 36° |
| 2026-04-14 11:09 | 50.64308 | -120.59193 | 7956 ft | 152 kts | 36° |
| 2026-04-14 11:09 | 50.65127 | -120.58201 | 7950 ft | 150 kts | 36° |
| 2026-04-14 11:10 | 50.66776 | -120.56208 | 7960 ft | 149 kts | 36° |
| 2026-04-14 11:10 | 50.67604 | -120.55205 | 7970 ft | 151 kts | 36° |
| 2026-04-14 11:10 | 50.68439 | -120.54197 | 7967 ft | 152 kts | 36° |
| 2026-04-14 11:10 | 50.69279 | -120.53188 | 7965 ft | 152 kts | 35° |
| 2026-04-14 11:11 | 50.70119 | -120.52181 | 7968 ft | 152 kts | 35° |
| 2026-04-14 11:11 | 50.70960 | -120.51161 | 7966 ft | 152 kts | 36° |
| 2026-04-14 11:11 | 50.71800 | -120.50148 | 7964 ft | 152 kts | 35° |
| 2026-04-14 11:11 | 50.72642 | -120.49132 | 7970 ft | 153 kts | 36° |
| 2026-04-14 11:12 | 50.73490 | -120.48111 | 7971 ft | 154 kts | 36° |
| 2026-04-14 11:12 | 50.74344 | -120.47084 | 7966 ft | 154 kts | 36° |
| 2026-04-14 11:12 | 50.75198 | -120.46056 | 7950 ft | 153 kts | 36° |
| 2026-04-14 11:12 | 50.76043 | -120.45037 | 7954 ft | 153 kts | 36° |
| 2026-04-14 11:13 | 50.76889 | -120.44020 | 7954 ft | 153 kts | 36° |
| 2026-04-14 11:13 | 50.77731 | -120.43007 | 7949 ft | 152 kts | 35° |
| 2026-04-14 11:13 | 50.78570 | -120.41997 | 7951 ft | 151 kts | 36° |
| 2026-04-14 11:13 | 50.79394 | -120.41000 | 7951 ft | 151 kts | 36° |
| 2026-04-14 11:14 | 50.80230 | -120.39989 | 7961 ft | 152 kts | 36° |
| 2026-04-14 11:14 | 50.81071 | -120.38971 | 7963 ft | 153 kts | 35° |
| 2026-04-14 11:14 | 50.81915 | -120.37940 | 7959 ft | 154 kts | 35° |
| 2026-04-14 11:14 | 50.82766 | -120.36909 | 7965 ft | 154 kts | 36° |
| 2026-04-14 11:15 | 50.83620 | -120.35875 | 7952 ft | 154 kts | 35° |
| 2026-04-14 11:15 | 50.84465 | -120.34839 | 7961 ft | 154 kts | 36° |
| 2026-04-14 11:15 | 50.85311 | -120.33805 | 7968 ft | 154 kts | 36° |
| 2026-04-14 11:15 | 50.86161 | -120.32766 | 7966 ft | 154 kts | 36° |
| 2026-04-14 11:16 | 50.87011 | -120.31731 | 7970 ft | 154 kts | 35° |
| 2026-04-14 11:16 | 50.87866 | -120.30707 | 7963 ft | 153 kts | 35° |
| 2026-04-14 11:16 | 50.88712 | -120.29683 | 7953 ft | 152 kts | 35° |
| 2026-04-14 11:16 | 50.89490 | -120.28570 | 7964 ft | 151 kts | 64° |
| 2026-04-14 11:17 | 50.89487 | -120.27035 | 7964 ft | 137 kts | 131° |
| 2026-04-14 11:17 | 50.88741 | -120.26531 | 7988 ft | 115 kts | 206° |
| 2026-04-14 11:17 | 50.88432 | -120.27527 | 8007 ft | 116 kts | 289° |
| 2026-04-14 11:17 | 50.89166 | -120.28169 | 8026 ft | 144 kts | 4° |
| 2026-04-14 11:18 | 50.90000 | -120.27229 | 8006 ft | 160 kts | 68° |
| 2026-04-14 11:18 | 50.89974 | -120.25521 | 8000 ft | 160 kts | 127° |
| 2026-04-14 11:18 | 50.89100 | -120.24636 | 8010 ft | 154 kts | 174° |
| 2026-04-14 11:18 | 50.88011 | -120.24368 | 8000 ft | 160 kts | 184° |
| 2026-04-14 11:19 | 50.86896 | -120.24509 | 7997 ft | 162 kts | 192° |
| 2026-04-14 11:19 | 50.85759 | -120.24798 | 7885 ft | 171 kts | 193° |
| 2026-04-14 11:19 | 50.84604 | -120.25337 | 7674 ft | 176 kts | 213° |
| 2026-04-14 11:19 | 50.83552 | -120.26388 | 7493 ft | 183 kts | 214° |
| 2026-04-14 11:20 | 50.82472 | -120.27504 | 7292 ft | 188 kts | 214° |
| 2026-04-14 11:20 | 50.81380 | -120.28678 | 7089 ft | 191 kts | 215° |
| 2026-04-14 11:20 | 50.80277 | -120.29879 | 6877 ft | 194 kts | 215° |
| 2026-04-14 11:20 | 50.79160 | -120.31109 | 6637 ft | 197 kts | 215° |
| 2026-04-14 11:21 | 50.78002 | -120.32285 | 6388 ft | 198 kts | 210° |
| 2026-04-14 11:21 | 50.76780 | -120.33317 | 6128 ft | 200 kts | 207° |
| 2026-04-14 11:21 | 50.75539 | -120.34305 | 5859 ft | 200 kts | 206° |
| 2026-04-14 11:21 | 50.74300 | -120.35268 | 5594 ft | 192 kts | 205° |
| 2026-04-14 11:22 | 50.73147 | -120.36174 | 5212 ft | 181 kts | 206° |
| 2026-04-14 11:22 | 50.72029 | -120.37053 | 4759 ft | 178 kts | 205° |
| 2026-04-14 11:22 | 50.70920 | -120.37917 | 4302 ft | 177 kts | 206° |
| 2026-04-14 11:22 | 50.69830 | -120.38770 | 3837 ft | 176 kts | 205° |
| 2026-04-14 11:23 | 50.68689 | -120.39357 | 3335 ft | 174 kts | 176° |
| 2026-04-14 11:23 | 50.67687 | -120.38342 | 2848 ft | 180 kts | 121° |
| 2026-04-14 11:23 | 50.67626 | -120.36385 | 2482 ft | 191 kts | 71° |
| 2026-04-14 11:23 | 50.68571 | -120.35109 | 2238 ft | 182 kts | 8° |
| 2026-04-14 11:24 | 50.69673 | -120.35595 | 2107 ft | 158 kts | 314° |
| 2026-04-14 11:24 | 50.70076 | -120.37009 | 2004 ft | 137 kts | 269° |
| 2026-04-14 11:24 | 50.70005 | -120.38441 | 1859 ft | 124 kts | 261° |
| 2026-04-14 11:24 | 50.69907 | -120.39719 | 1704 ft | 111 kts | 261° |
| 2026-04-14 11:25 | 50.69857 | -120.40831 | 1518 ft | 95 kts | 269° |
| 2026-04-14 11:25 | 50.69902 | -120.41832 | 1363 ft | 88 kts | 272° |
| 2026-04-14 11:25 | 50.69996 | -120.42754 | 1206 ft | 83 kts | 280° |
| 2026-04-14 11:25 | 50.70117 | -120.43587 | 1138 ft | 75 kts | 280° |
| 2026-04-14 11:26 | 50.70215 | -120.44278 | 1133 ft | 49 kts | 282° |
| 2026-04-14 11:26 | 50.70252 | -120.44539 | 1130 ft | 9 kts | 295° |
| 2026-04-14 11:26 | 50.70253 | -120.44486 | 1130 ft | 11 kts | 105° |
| 2026-04-14 11:26 | 50.70284 | -120.44385 | 1133 ft | 13 kts | 15° |
| 2026-04-14 11:27 | 50.70350 | -120.44313 | 1131 ft | 12 kts | 66° |
| 2026-04-14 11:27 | 50.70392 | -120.44190 | 1131 ft | 13 kts | 62° |
| 2026-04-14 11:27 | 50.70438 | -120.44061 | 1131 ft | 14 kts | 60° |
| 2026-04-14 11:27 | 50.70519 | -120.43980 | 1135 ft | 13 kts | 30° |
| 2026-04-14 11:28 | 50.70570 | -120.43868 | 1132 ft | 13 kts | 62° |
| 2026-04-14 11:28 | 50.70602 | -120.43779 | 1133 ft | 4 kts | 46° |
| 2026-04-14 11:28 | 50.70630 | -120.43784 | 1131 ft | 2 kts | 329° |
| 2026-04-14 11:28 | 50.70637 | -120.43784 | 1135 ft | 0 kts | 32° |
| 2026-04-14 11:29 | 50.70642 | -120.43775 | 1131 ft | 0 kts | 58° |
| 2026-04-14 11:40 | 50.70635 | -120.43758 | 1133 ft | 5 kts | 144° |
| 2026-04-14 11:40 | 50.70591 | -120.43719 | 1131 ft | 10 kts | 150° |
| 2026-04-14 11:40 | 50.70511 | -120.43658 | 1133 ft | 16 kts | 157° |
| 2026-04-14 11:41 | 50.70393 | -120.43575 | 1131 ft | 20 kts | 154° |
| 2026-04-14 11:41 | 50.70287 | -120.43498 | 1131 ft | 16 kts | 137° |
| 2026-04-14 11:41 | 50.70253 | -120.43330 | 1131 ft | 16 kts | 107° |
| 2026-04-14 11:41 | 50.70173 | -120.43211 | 1131 ft | 16 kts | 150° |
| 2026-04-14 11:42 | 50.70074 | -120.43219 | 1132 ft | 15 kts | 224° |
| 2026-04-14 11:42 | 50.70077 | -120.43351 | 1129 ft | 6 kts | 282° |
| 2026-04-14 11:42 | 50.70078 | -120.43356 | 1129 ft | 0 kts | 282° |
| 2026-04-14 11:42 | 50.70084 | -120.43396 | 1125 ft | 16 kts | 284° |
| 2026-04-14 11:43 | 50.70143 | -120.43812 | 1132 ft | 65 kts | 282° |
| 2026-04-14 11:43 | 50.70279 | -120.44689 | 1131 ft | 96 kts | 283° |
| 2026-04-14 11:43 | 50.70464 | -120.45773 | 1268 ft | 105 kts | 285° |
| 2026-04-14 11:43 | 50.70666 | -120.46894 | 1551 ft | 108 kts | 285° |
| 2026-04-14 11:44 | 50.70921 | -120.48037 | 1810 ft | 114 kts | 293° |
| 2026-04-14 11:44 | 50.71218 | -120.49177 | 2081 ft | 113 kts | 274° |
| 2026-04-14 11:44 | 50.70810 | -120.50051 | 2330 ft | 110 kts | 186° |
| 2026-04-14 11:44 | 50.70168 | -120.49441 | 2591 ft | 116 kts | 127° |
| 2026-04-14 11:45 | 50.69747 | -120.48336 | 2853 ft | 120 kts | 120° |
| 2026-04-14 11:45 | 50.69394 | -120.47117 | 3135 ft | 126 kts | 105° |
| 2026-04-14 11:45 | 50.69497 | -120.45722 | 3419 ft | 133 kts | 73° |
| 2026-04-14 11:45 | 50.69811 | -120.44314 | 3712 ft | 139 kts | 76° |
| 2026-04-14 11:46 | 50.70032 | -120.42802 | 3971 ft | 145 kts | 84° |
| 2026-04-14 11:46 | 50.70140 | -120.41196 | 4228 ft | 148 kts | 89° |
| 2026-04-14 11:46 | 50.70175 | -120.39575 | 4492 ft | 148 kts | 92° |
| 2026-04-14 11:46 | 50.70176 | -120.37953 | 4752 ft | 148 kts | 94° |
| 2026-04-14 11:47 | 50.70164 | -120.36326 | 5013 ft | 148 kts | 94° |
| 2026-04-14 11:47 | 50.70146 | -120.34696 | 5269 ft | 149 kts | 94° |
| 2026-04-14 11:47 | 50.70134 | -120.33612 | 5441 ft | 148 kts | 95° |
| 2026-04-14 11:47 | 50.70113 | -120.32020 | 5699 ft | 142 kts | 96° |
| 2026-04-14 11:48 | 50.70096 | -120.30502 | 5912 ft | 133 kts | 99° |
| 2026-04-14 11:48 | 50.70082 | -120.29081 | 6184 ft | 128 kts | 98° |
| 2026-04-14 11:48 | 50.70069 | -120.27691 | 6437 ft | 124 kts | 99° |
| 2026-04-14 11:48 | 50.70046 | -120.25906 | 6827 ft | 122 kts | 99° |
| 2026-04-14 11:49 | 50.70034 | -120.25003 | 6986 ft | 125 kts | 99° |
| 2026-04-14 11:49 | 50.69999 | -120.23518 | 7030 ft | 146 kts | 99° |
| 2026-04-14 11:49 | 50.69954 | -120.21794 | 7046 ft | 167 kts | 98° |
| 2026-04-14 11:49 | 50.69916 | -120.19873 | 7052 ft | 183 kts | 97° |
| 2026-04-14 11:50 | 50.69886 | -120.17815 | 7019 ft | 193 kts | 97° |
| 2026-04-14 11:50 | 50.69864 | -120.15689 | 7002 ft | 195 kts | 96° |
| 2026-04-14 11:50 | 50.69839 | -120.13532 | 7023 ft | 199 kts | 95° |
| 2026-04-14 11:51 | 50.69782 | -120.09103 | 7022 ft | 203 kts | 96° |
| 2026-04-14 11:51 | 50.69753 | -120.06903 | 7017 ft | 198 kts | 96° |
| 2026-04-14 11:51 | 50.69725 | -120.04752 | 7013 ft | 195 kts | 96° |
| 2026-04-14 11:51 | 50.69696 | -120.02634 | 7014 ft | 192 kts | 96° |
| 2026-04-14 11:52 | 50.69666 | -120.00543 | 7019 ft | 189 kts | 96° |
| 2026-04-14 11:52 | 50.69635 | -119.98464 | 7031 ft | 189 kts | 96° |
| 2026-04-14 11:52 | 50.69605 | -119.96408 | 7018 ft | 187 kts | 96° |
| 2026-04-14 11:52 | 50.69574 | -119.94377 | 7018 ft | 184 kts | 96° |
| 2026-04-14 11:53 | 50.69545 | -119.92407 | 7005 ft | 180 kts | 97° |
| 2026-04-14 11:53 | 50.69514 | -119.90451 | 7015 ft | 177 kts | 96° |
| 2026-04-14 11:53 | 50.69484 | -119.88523 | 7020 ft | 175 kts | 97° |
| 2026-04-14 11:53 | 50.69454 | -119.86614 | 7022 ft | 173 kts | 97° |
| 2026-04-14 11:54 | 50.69423 | -119.84727 | 7022 ft | 171 kts | 97° |
| 2026-04-14 11:54 | 50.69393 | -119.82859 | 7019 ft | 169 kts | 97° |
| 2026-04-14 11:54 | 50.69362 | -119.81008 | 7019 ft | 167 kts | 97° |
| 2026-04-14 11:54 | 50.69330 | -119.79146 | 6921 ft | 171 kts | 97° |
| 2026-04-14 11:55 | 50.69296 | -119.77282 | 6802 ft | 168 kts | 97° |
| 2026-04-14 11:55 | 50.69264 | -119.75460 | 6678 ft | 164 kts | 96° |
| 2026-04-14 11:55 | 50.69234 | -119.73697 | 6556 ft | 162 kts | 96° |
| 2026-04-14 11:55 | 50.69203 | -119.71910 | 6488 ft | 164 kts | 96° |
| 2026-04-14 11:56 | 50.69170 | -119.70112 | 6378 ft | 163 kts | 96° |
| 2026-04-14 11:56 | 50.69141 | -119.68355 | 6180 ft | 158 kts | 96° |
| 2026-04-14 11:56 | 50.69110 | -119.66619 | 6009 ft | 157 kts | 96° |
| 2026-04-14 11:56 | 50.69080 | -119.64899 | 5849 ft | 156 kts | 97° |
| 2026-04-14 11:57 | 50.69049 | -119.63179 | 5723 ft | 157 kts | 96° |
| 2026-04-14 11:57 | 50.69017 | -119.61456 | 5657 ft | 157 kts | 96° |
| 2026-04-14 11:57 | 50.68986 | -119.59743 | 5597 ft | 155 kts | 96° |
| 2026-04-14 11:57 | 50.68955 | -119.58049 | 5531 ft | 154 kts | 96° |
| 2026-04-14 11:58 | 50.68927 | -119.56377 | 5418 ft | 151 kts | 96° |
| 2026-04-14 11:58 | 50.69049 | -119.54744 | 5353 ft | 155 kts | 64° |
| 2026-04-14 11:58 | 50.69606 | -119.53300 | 5274 ft | 154 kts | 61° |
| 2026-04-14 11:58 | 50.70176 | -119.51853 | 5212 ft | 156 kts | 61° |
| 2026-04-14 11:59 | 50.70760 | -119.50395 | 5146 ft | 157 kts | 61° |
| 2026-04-14 11:59 | 50.71346 | -119.48959 | 5072 ft | 158 kts | 60° |
| 2026-04-14 11:59 | 50.71953 | -119.47507 | 5005 ft | 159 kts | 59° |
| 2026-04-14 11:59 | 50.72523 | -119.46394 | 5742 ft | 128 kts | 39° |
| 2026-04-14 12:00 | 50.73388 | -119.45496 | 5837 ft | 170 kts | 24° |
| 2026-04-14 12:00 | 50.74498 | -119.44331 | 5723 ft | 209 kts | 37° |
| 2026-04-14 12:00 | 50.75524 | -119.42657 | 6081 ft | 212 kts | 52° |
| 2026-04-14 12:00 | 50.76257 | -119.40599 | 6282 ft | 222 kts | 69° |
| 2026-04-14 12:01 | 50.76617 | -119.38190 | 6042 ft | 220 kts | 88° |
| 2026-04-14 12:01 | 50.76675 | -119.35882 | 6075 ft | 202 kts | 100° |
| 2026-04-14 12:01 | 50.76501 | -119.33727 | 6014 ft | 196 kts | 101° |
| 2026-04-14 12:01 | 50.76327 | -119.31684 | 5753 ft | 180 kts | 102° |
| 2026-04-14 12:02 | 50.76174 | -119.29785 | 5486 ft | 169 kts | 102° |
| 2026-04-14 12:02 | 50.76018 | -119.27979 | 5226 ft | 163 kts | 102° |
| 2026-04-14 12:02 | 50.75859 | -119.26219 | 4969 ft | 160 kts | 103° |
| 2026-04-14 12:02 | 50.75702 | -119.24497 | 4720 ft | 158 kts | 103° |
| 2026-04-14 12:03 | 50.75556 | -119.22784 | 4459 ft | 157 kts | 103° |
| 2026-04-14 12:03 | 50.75107 | -119.21352 | 4158 ft | 145 kts | 149° |
| 2026-04-14 12:03 | 50.74192 | -119.20721 | 3831 ft | 146 kts | 171° |
| 2026-04-14 12:03 | 50.73166 | -119.20619 | 3579 ft | 150 kts | 179° |
| 2026-04-14 12:04 | 50.72157 | -119.20900 | 3386 ft | 149 kts | 209° |
| 2026-04-14 12:04 | 50.71557 | -119.22140 | 3304 ft | 145 kts | 248° |
| 2026-04-14 12:04 | 50.71416 | -119.23712 | 3121 ft | 149 kts | 274° |
| 2026-04-14 12:04 | 50.71725 | -119.25263 | 2978 ft | 150 kts | 308° |
| 2026-04-14 12:05 | 50.72652 | -119.25814 | 2904 ft | 149 kts | 12° |
| 2026-04-14 12:05 | 50.73331 | -119.24787 | 2850 ft | 131 kts | 85° |
| 2026-04-14 12:05 | 50.72965 | -119.23645 | 2824 ft | 119 kts | 137° |
| 2026-04-14 12:05 | 50.72383 | -119.22730 | 2786 ft | 117 kts | 140° |
| 2026-04-14 12:06 | 50.71625 | -119.22563 | 2788 ft | 118 kts | 207° |
| 2026-04-14 12:06 | 50.71282 | -119.23655 | 2754 ft | 121 kts | 272° |
| 2026-04-14 12:06 | 50.71830 | -119.24566 | 2743 ft | 123 kts | 352° |
| 2026-04-14 12:06 | 50.72501 | -119.23998 | 2781 ft | 114 kts | 70° |
| 2026-04-14 12:07 | 50.72315 | -119.22893 | 2764 ft | 108 kts | 144° |
| 2026-04-14 12:07 | 50.71629 | -119.22827 | 2803 ft | 103 kts | 212° |
| 2026-04-14 12:07 | 50.71410 | -119.23823 | 2893 ft | 108 kts | 285° |
| 2026-04-14 12:07 | 50.72016 | -119.24385 | 2961 ft | 110 kts | 8° |
| 2026-04-14 12:08 | 50.72514 | -119.23634 | 2994 ft | 106 kts | 88° |
| 2026-04-14 12:08 | 50.72106 | -119.22806 | 3150 ft | 105 kts | 170° |
| 2026-04-14 12:08 | 50.71385 | -119.23087 | 3387 ft | 109 kts | 201° |
| 2026-04-14 12:08 | 50.70632 | -119.23500 | 3623 ft | 119 kts | 191° |
| 2026-04-14 12:09 | 50.69757 | -119.23521 | 3751 ft | 140 kts | 172° |
| 2026-04-14 12:09 | 50.68762 | -119.23279 | 4071 ft | 150 kts | 171° |
| 2026-04-14 12:09 | 50.67690 | -119.22909 | 4343 ft | 166 kts | 169° |
| 2026-04-14 12:09 | 50.66527 | -119.22399 | 4582 ft | 180 kts | 160° |
| 2026-04-14 12:10 | 50.65359 | -119.21551 | 4807 ft | 189 kts | 156° |
| 2026-04-14 12:10 | 50.64168 | -119.20575 | 5033 ft | 196 kts | 155° |
| 2026-04-14 12:10 | 50.62951 | -119.19531 | 5262 ft | 202 kts | 155° |
| 2026-04-14 12:10 | 50.61716 | -119.18447 | 5492 ft | 205 kts | 155° |
| 2026-04-14 12:11 | 50.60470 | -119.17332 | 5716 ft | 207 kts | 155° |
| 2026-04-14 12:11 | 50.59222 | -119.16195 | 5956 ft | 208 kts | 155° |
| 2026-04-14 12:11 | 50.57933 | -119.15021 | 5930 ft | 218 kts | 154° |
| 2026-04-14 12:11 | 50.56613 | -119.13823 | 5926 ft | 225 kts | 154° |
| 2026-04-14 12:12 | 50.55229 | -119.12652 | 5920 ft | 227 kts | 157° |
| 2026-04-14 12:12 | 50.53801 | -119.11560 | 5918 ft | 229 kts | 159° |
| 2026-04-14 12:12 | 50.52350 | -119.10536 | 5919 ft | 228 kts | 161° |
| 2026-04-14 12:12 | 50.50885 | -119.09645 | 5917 ft | 222 kts | 164° |
| 2026-04-14 12:13 | 50.49482 | -119.08754 | 6127 ft | 209 kts | 160° |
| 2026-04-14 12:13 | 50.48190 | -119.07941 | 6534 ft | 193 kts | 167° |
| 2026-04-14 12:13 | 50.46884 | -119.07514 | 6603 ft | 194 kts | 179° |
| 2026-04-14 12:13 | 50.45567 | -119.07393 | 6642 ft | 178 kts | 185° |
| 2026-04-14 12:14 | 50.44427 | -119.07697 | 6480 ft | 157 kts | 199° |
| 2026-04-14 12:14 | 50.43417 | -119.08057 | 6374 ft | 142 kts | 192° |
| 2026-04-14 12:14 | 50.42491 | -119.08302 | 6343 ft | 129 kts | 198° |
| 2026-04-14 12:14 | 50.41620 | -119.08493 | 6286 ft | 127 kts | 186° |
| 2026-04-14 12:15 | 50.40752 | -119.08489 | 6328 ft | 126 kts | 188° |
| 2026-04-14 12:15 | 50.39868 | -119.08449 | 6358 ft | 130 kts | 179° |
| 2026-04-14 12:15 | 50.38982 | -119.08221 | 6393 ft | 130 kts | 179° |
| 2026-04-14 12:15 | 50.38102 | -119.08007 | 6394 ft | 127 kts | 177° |
| 2026-04-14 12:16 | 50.37246 | -119.07788 | 6335 ft | 121 kts | 179° |
| 2026-04-14 12:16 | 50.36430 | -119.07465 | 6365 ft | 125 kts | 165° |
| 2026-04-14 12:16 | 50.35628 | -119.06689 | 5961 ft | 151 kts | 140° |
| 2026-04-14 12:16 | 50.35434 | -119.05162 | 5878 ft | 148 kts | 65° |
| 2026-04-14 12:17 | 50.36201 | -119.04462 | 5847 ft | 123 kts | 342° |
| 2026-04-14 12:17 | 50.36703 | -119.05172 | 5923 ft | 92 kts | 261° |
| 2026-04-14 12:17 | 50.36379 | -119.05995 | 5993 ft | 92 kts | 226° |
| 2026-04-14 12:17 | 50.35845 | -119.06472 | 5985 ft | 97 kts | 176° |
| 2026-04-14 12:18 | 50.35414 | -119.05690 | 5925 ft | 114 kts | 94° |
| 2026-04-14 12:18 | 50.35817 | -119.04678 | 5830 ft | 111 kts | 14° |
| 2026-04-14 12:18 | 50.36453 | -119.04856 | 5933 ft | 84 kts | 295° |
| 2026-04-14 12:18 | 50.36458 | -119.05634 | 5936 ft | 81 kts | 234° |
| 2026-04-14 12:19 | 50.36125 | -119.06390 | 5988 ft | 90 kts | 229° |
| 2026-04-14 12:19 | 50.35501 | -119.06612 | 6029 ft | 105 kts | 160° |
| 2026-04-14 12:19 | 50.35192 | -119.05562 | 5980 ft | 122 kts | 84° |
| 2026-04-14 12:19 | 50.35721 | -119.04503 | 6093 ft | 133 kts | 14° |
| 2026-04-14 12:20 | 50.36573 | -119.04565 | 6575 ft | 122 kts | 321° |
| 2026-04-14 12:20 | 50.37251 | -119.05454 | 6802 ft | 139 kts | 307° |
| 2026-04-14 12:20 | 50.38034 | -119.06741 | 6717 ft | 180 kts | 307° |
| 2026-04-14 12:20 | 50.38944 | -119.08284 | 6728 ft | 205 kts | 307° |
| 2026-04-14 12:21 | 50.39934 | -119.09988 | 6836 ft | 217 kts | 307° |
| 2026-04-14 12:21 | 50.40967 | -119.11770 | 6937 ft | 222 kts | 307° |
| 2026-04-14 12:21 | 50.42008 | -119.13572 | 7005 ft | 222 kts | 307° |
| 2026-04-14 12:21 | 50.43044 | -119.15369 | 7136 ft | 222 kts | 307° |
| 2026-04-14 12:22 | 50.44083 | -119.17173 | 7264 ft | 224 kts | 307° |
| 2026-04-14 12:22 | 50.45129 | -119.18987 | 7376 ft | 224 kts | 307° |
| 2026-04-14 12:22 | 50.46173 | -119.20801 | 7505 ft | 223 kts | 307° |
| 2026-04-14 12:22 | 50.47213 | -119.22608 | 7633 ft | 222 kts | 307° |
| 2026-04-14 12:23 | 50.48255 | -119.24403 | 7772 ft | 223 kts | 307° |
| 2026-04-14 12:23 | 50.49307 | -119.26200 | 7882 ft | 224 kts | 307° |
| 2026-04-14 12:23 | 50.50369 | -119.28018 | 7934 ft | 227 kts | 307° |
| 2026-04-14 12:23 | 50.51441 | -119.29863 | 7961 ft | 230 kts | 307° |
| 2026-04-14 12:24 | 50.52526 | -119.31730 | 7982 ft | 233 kts | 307° |
| 2026-04-14 12:24 | 50.53621 | -119.33618 | 7998 ft | 235 kts | 307° |
| 2026-04-14 12:24 | 50.54728 | -119.35534 | 7988 ft | 237 kts | 307° |
| 2026-04-14 12:24 | 50.55819 | -119.37424 | 7977 ft | 236 kts | 307° |
| 2026-04-14 12:25 | 50.56921 | -119.39335 | 7978 ft | 236 kts | 307° |
| 2026-04-14 12:25 | 50.58024 | -119.41243 | 7978 ft | 232 kts | 307° |
| 2026-04-14 12:25 | 50.59075 | -119.43050 | 7969 ft | 213 kts | 308° |
| 2026-04-14 12:25 | 50.60078 | -119.44616 | 7970 ft | 194 kts | 311° |
| 2026-04-14 12:26 | 50.61008 | -119.45922 | 7982 ft | 165 kts | 313° |
| 2026-04-14 12:26 | 50.61824 | -119.47025 | 7987 ft | 146 kts | 312° |
| 2026-04-14 12:26 | 50.62570 | -119.48041 | 7994 ft | 139 kts | 311° |
| 2026-04-14 12:26 | 50.63301 | -119.49058 | 7988 ft | 143 kts | 311° |
| 2026-04-14 12:27 | 50.64053 | -119.50120 | 7987 ft | 148 kts | 311° |
| 2026-04-14 12:27 | 50.64839 | -119.51231 | 8020 ft | 156 kts | 311° |
| 2026-04-14 12:27 | 50.65663 | -119.52393 | 8032 ft | 161 kts | 313° |
| 2026-04-14 12:27 | 50.66511 | -119.53579 | 8000 ft | 164 kts | 313° |
| 2026-04-14 12:28 | 50.67328 | -119.54843 | 8000 ft | 164 kts | 306° |
| 2026-04-14 12:28 | 50.67986 | -119.56278 | 7999 ft | 163 kts | 295° |
| 2026-04-14 12:28 | 50.68465 | -119.57893 | 8007 ft | 162 kts | 286° |
| 2026-04-14 12:28 | 50.68782 | -119.59601 | 8009 ft | 163 kts | 279° |
| 2026-04-14 12:29 | 50.68980 | -119.61361 | 8015 ft | 164 kts | 275° |
| 2026-04-14 12:29 | 50.69102 | -119.63160 | 8015 ft | 165 kts | 272° |
| 2026-04-14 12:29 | 50.69173 | -119.64975 | 8001 ft | 166 kts | 270° |
| 2026-04-14 12:29 | 50.69207 | -119.66785 | 7986 ft | 164 kts | 269° |
| 2026-04-14 12:30 | 50.69230 | -119.68570 | 7983 ft | 161 kts | 268° |
| 2026-04-14 12:30 | 50.69254 | -119.70324 | 7978 ft | 159 kts | 268° |
| 2026-04-14 12:30 | 50.69279 | -119.72064 | 8008 ft | 160 kts | 269° |
| 2026-04-14 12:30 | 50.69306 | -119.73810 | 8028 ft | 163 kts | 269° |
| 2026-04-14 12:31 | 50.69337 | -119.75607 | 8013 ft | 164 kts | 269° |
| 2026-04-14 12:31 | 50.69368 | -119.77406 | 8005 ft | 164 kts | 269° |
| 2026-04-14 12:31 | 50.69399 | -119.79202 | 8010 ft | 163 kts | 269° |
| 2026-04-14 12:31 | 50.69431 | -119.80981 | 8003 ft | 162 kts | 269° |
| 2026-04-14 12:32 | 50.69461 | -119.82749 | 7996 ft | 160 kts | 269° |
| 2026-04-14 12:32 | 50.69490 | -119.84494 | 7992 ft | 158 kts | 269° |
| 2026-04-14 12:32 | 50.69518 | -119.86222 | 7986 ft | 156 kts | 269° |
| 2026-04-14 12:32 | 50.69544 | -119.87924 | 7986 ft | 155 kts | 269° |
| 2026-04-14 12:33 | 50.69570 | -119.89614 | 7999 ft | 154 kts | 269° |
| 2026-04-14 12:33 | 50.69595 | -119.91300 | 8002 ft | 154 kts | 269° |
| 2026-04-14 12:33 | 50.69621 | -119.92986 | 8001 ft | 154 kts | 269° |
| 2026-04-14 12:33 | 50.69647 | -119.94667 | 7984 ft | 153 kts | 269° |
| 2026-04-14 12:34 | 50.69672 | -119.96342 | 7979 ft | 152 kts | 269° |
| 2026-04-14 12:34 | 50.69697 | -119.98000 | 7973 ft | 151 kts | 269° |
| 2026-04-14 12:34 | 50.69721 | -119.99639 | 7956 ft | 148 kts | 269° |
| 2026-04-14 12:34 | 50.69744 | -120.01247 | 7964 ft | 147 kts | 269° |
| 2026-04-14 12:35 | 50.69767 | -120.02858 | 7978 ft | 147 kts | 268° |
| 2026-04-14 12:35 | 50.69790 | -120.04480 | 7981 ft | 149 kts | 269° |
| 2026-04-14 12:35 | 50.69813 | -120.06100 | 7982 ft | 150 kts | 269° |
| 2026-04-14 12:35 | 50.69838 | -120.07759 | 7981 ft | 152 kts | 269° |
| 2026-04-14 12:36 | 50.69862 | -120.09420 | 7977 ft | 152 kts | 269° |
| 2026-04-14 12:36 | 50.69887 | -120.11090 | 7980 ft | 153 kts | 268° |
| 2026-04-14 12:36 | 50.69911 | -120.12767 | 7979 ft | 154 kts | 268° |
| 2026-04-14 12:36 | 50.69934 | -120.14462 | 7993 ft | 155 kts | 269° |
| 2026-04-14 12:37 | 50.69958 | -120.16173 | 7996 ft | 157 kts | 268° |
| 2026-04-14 12:37 | 50.69983 | -120.17880 | 7959 ft | 154 kts | 269° |
| 2026-04-14 12:37 | 50.70006 | -120.19548 | 7967 ft | 152 kts | 268° |
| 2026-04-14 12:37 | 50.70027 | -120.21226 | 7992 ft | 154 kts | 268° |
| 2026-04-14 12:38 | 50.70065 | -120.24076 | 7696 ft | 160 kts | 269° |
| 2026-04-14 12:38 | 50.70090 | -120.25824 | 7305 ft | 157 kts | 266° |
| 2026-04-14 12:38 | 50.69976 | -120.27534 | 6931 ft | 156 kts | 258° |
| 2026-04-14 12:39 | 50.69795 | -120.29215 | 6564 ft | 155 kts | 257° |
| 2026-04-14 12:39 | 50.69595 | -120.30888 | 6058 ft | 152 kts | 256° |
| 2026-04-14 12:39 | 50.69400 | -120.32488 | 5570 ft | 146 kts | 256° |
| 2026-04-14 12:39 | 50.69208 | -120.34049 | 5030 ft | 143 kts | 258° |
| 2026-04-14 12:40 | 50.69141 | -120.35601 | 4491 ft | 142 kts | 266° |
| 2026-04-14 12:40 | 50.69179 | -120.37156 | 3940 ft | 141 kts | 270° |
| 2026-04-14 12:40 | 50.69349 | -120.38691 | 3376 ft | 143 kts | 285° |
| 2026-04-14 12:40 | 50.69552 | -120.40194 | 2741 ft | 138 kts | 267° |
| 2026-04-14 12:41 | 50.69740 | -120.41683 | 2113 ft | 139 kts | 275° |
| 2026-04-14 12:41 | 50.70028 | -120.43155 | 1502 ft | 142 kts | 287° |
| 2026-04-14 12:41 | 50.70278 | -120.44619 | 1178 ft | 127 kts | 285° |
| 2026-04-14 12:41 | 50.70491 | -120.45936 | 1346 ft | 123 kts | 285° |
| 2026-04-14 12:42 | 50.70731 | -120.47206 | 1770 ft | 122 kts | 286° |
| 2026-04-14 12:42 | 50.70899 | -120.48468 | 2143 ft | 115 kts | 269° |
| 2026-04-14 12:42 | 50.70585 | -120.49591 | 2372 ft | 116 kts | 223° |
| 2026-04-14 12:42 | 50.69811 | -120.49800 | 2519 ft | 122 kts | 159° |
| 2026-04-14 12:43 | 50.69368 | -120.48686 | 2546 ft | 123 kts | 103° |
| 2026-04-14 12:43 | 50.69196 | -120.47387 | 2473 ft | 122 kts | 103° |
| 2026-04-14 12:43 | 50.69015 | -120.46099 | 2449 ft | 118 kts | 104° |
| 2026-04-14 12:43 | 50.68850 | -120.44841 | 2424 ft | 116 kts | 105° |
| 2026-04-14 12:44 | 50.68656 | -120.43635 | 2418 ft | 109 kts | 107° |
| 2026-04-14 12:44 | 50.68491 | -120.42562 | 2414 ft | 95 kts | 102° |
| 2026-04-14 12:44 | 50.68664 | -120.41571 | 2183 ft | 98 kts | 45° |
| 2026-04-14 12:45 | 50.69875 | -120.41391 | 1702 ft | 96 kts | 303° |
| 2026-04-14 12:45 | 50.69982 | -120.42416 | 1367 ft | 98 kts | 266° |
| 2026-04-14 12:45 | 50.70097 | -120.43456 | 1153 ft | 93 kts | 279° |
| 2026-04-14 12:45 | 50.70231 | -120.44339 | 1135 ft | 72 kts | 280° |
| 2026-04-14 12:46 | 50.70318 | -120.44943 | 1133 ft | 37 kts | 282° |
| 2026-04-14 12:46 | 50.70367 | -120.45285 | 1132 ft | 23 kts | 283° |
| 2026-04-14 12:46 | 50.70422 | -120.45407 | 1133 ft | 14 kts | 23° |
| 2026-04-14 12:46 | 50.70477 | -120.45279 | 1131 ft | 14 kts | 57° |
| 2026-04-14 12:47 | 50.70525 | -120.45143 | 1131 ft | 14 kts | 85° |
| 2026-04-14 12:47 | 50.70502 | -120.44992 | 1132 ft | 14 kts | 102° |
| 2026-04-14 12:47 | 50.70484 | -120.44844 | 1131 ft | 14 kts | 100° |
| 2026-04-14 12:47 | 50.70461 | -120.44703 | 1132 ft | 13 kts | 107° |
| 2026-04-14 12:48 | 50.70436 | -120.44549 | 1132 ft | 15 kts | 102° |
| 2026-04-14 12:48 | 50.70412 | -120.44387 | 1131 ft | 14 kts | 103° |
| 2026-04-14 12:48 | 50.70358 | -120.44288 | 1131 ft | 12 kts | 81° |
| 2026-04-14 12:48 | 50.70400 | -120.44167 | 1133 ft | 14 kts | 60° |
| 2026-04-14 12:49 | 50.70450 | -120.44038 | 1132 ft | 14 kts | 33° |
| 2026-04-14 12:49 | 50.70535 | -120.43961 | 1132 ft | 14 kts | 50° |
| 2026-04-14 12:49 | 50.70585 | -120.43825 | 1133 ft | 14 kts | 62° |
| 2026-04-14 12:49 | 50.70630 | -120.43783 | 1131 ft | 6 kts | 329° |
| 2026-04-14 12:50 | 50.70645 | -120.43775 | 1131 ft | 0 kts | 66° |